Time;durP1;ratioP1;P1;durP2;ratioP2;P2;SDS_P1;SDS_P2;PMS_P1;PMS_P2;Temp;Humidity;BMP_temperature;BMP_pressure;BME280_temperature;BME280_humidity;BME280_pressure;Samples;Min_cycle;Max_cycle;Signal;HPM_P1;HPM_P2
2023/03/09 00:01:36;;;;;;;41.67;23.52;;;3.70;93.70;;;;;;5021679;28;20129;-73
2023/03/09 00:04:02;;;;;;;41.97;24.20;;;3.80;93.80;;;;;;5023008;28;20025;-73
2023/03/09 00:06:29;;;;;;;40.03;24.17;;;3.80;93.80;;;;;;5024931;28;20406;-73
2023/03/09 00:08:55;;;;;;;45.50;26.80;;;3.70;93.70;;;;;;5026675;28;20033;-73
2023/03/09 00:11:20;;;;;;;48.10;26.70;;;3.80;93.70;;;;;;5015463;28;20080;-73
2023/03/09 00:13:49;;;;;;;46.60;26.80;;;3.70;93.70;;;;;;5021938;28;20035;-73
2023/03/09 00:16:21;;;;;;;50.33;28.90;;;3.70;93.60;;;;;;5020920;28;20041;-74
2023/03/09 00:18:48;;;;;;;54.47;30.27;;;3.70;93.60;;;;;;5020497;28;20029;-73
2023/03/09 00:21:56;;;;;;;53.08;30.38;;;3.70;93.50;;;;;;5019822;28;20048;-73
2023/03/09 00:24:10;;;;;;;56.13;30.95;;;3.60;93.40;;;;;;5009616;28;20045;-73
2023/03/09 00:26:38;;;;;;;55.25;31.77;;;3.60;93.40;;;;;;5017335;28;20044;-74
2023/03/09 00:29:05;;;;;;;55.08;32.42;;;3.60;93.40;;;;;;5028631;28;20037;-72
2023/03/09 00:31:32;;;;;;;61.42;34.10;;;3.50;93.30;;;;;;5020935;28;20030;-73
2023/03/09 00:33:57;;;;;;;58.45;33.63;;;3.50;93.40;;;;;;5021064;28;20432;-73
2023/03/09 00:36:24;;;;;;;54.10;30.00;;;3.50;93.30;;;;;;5021364;28;20559;-73
2023/03/09 00:38:55;;;;;;;61.90;34.00;;;3.50;93.30;;;;;;5022801;28;20034;-74
2023/03/09 00:41:22;;;;;;;57.60;30.30;;;3.50;93.30;;;;;;5018669;28;20044;-74
2023/03/09 00:43:48;;;;;;;63.45;34.00;;;3.50;93.40;;;;;;5016222;28;20057;-73
2023/03/09 00:46:14;;;;;;;68.28;38.15;;;3.50;93.30;;;;;;5023146;28;20121;-74
2023/03/09 00:48:40;;;;;;;69.15;36.58;;;3.40;93.20;;;;;;5022721;28;20051;-74
2023/03/09 00:51:07;;;;;;;64.90;35.90;;;3.40;93.30;;;;;;5017396;28;20262;-74
2023/03/09 00:53:34;;;;;;;64.82;37.53;;;3.40;93.30;;;;;;5030076;28;20061;-72
2023/03/09 00:56:05;;;;;;;72.57;38.58;;;3.40;93.30;;;;;;5031311;28;20112;-73
2023/03/09 00:58:31;;;;;;;66.28;37.45;;;3.30;93.30;;;;;;5026659;28;20143;-72
2023/03/09 01:00:56;;;;;;;77.20;39.55;;;3.30;93.40;;;;;;5023902;28;20545;-73
2023/03/09 01:03:23;;;;;;;72.88;40.15;;;3.20;93.30;;;;;;5013958;28;20026;-72
2023/03/09 01:05:49;;;;;;;73.07;40.22;;;3.20;93.50;;;;;;5024930;28;20048;-72
2023/03/09 01:08:15;;;;;;;79.68;41.75;;;3.20;93.40;;;;;;5031095;28;20092;-73
2023/03/09 01:10:41;;;;;;;87.65;44.28;;;3.20;93.50;;;;;;5024434;28;20061;-73
2023/03/09 01:13:09;;;;;;;83.15;44.25;;;3.20;93.50;;;;;;5024419;28;20033;-72
2023/03/09 01:15:36;;;;;;;82.82;43.20;;;3.20;93.60;;;;;;5023823;28;20030;-72
2023/03/09 01:18:01;;;;;;;85.07;42.97;;;3.30;93.60;;;;;;5018376;28;20033;-74
2023/03/09 01:20:27;;;;;;;79.72;42.83;;;3.30;93.60;;;;;;5026758;28;20033;-73
2023/03/09 01:22:53;;;;;;;89.43;43.88;;;3.30;93.70;;;;;;5035329;28;20049;-74
2023/03/09 01:25:18;;;;;;;82.55;44.60;;;3.30;93.60;;;;;;5025861;28;20350;-74
2023/03/09 01:27:44;;;;;;;86.35;43.47;;;3.30;93.60;;;;;;5004473;28;20045;-74
2023/03/09 01:30:11;;;;;;;86.78;43.65;;;3.30;93.60;;;;;;5009048;28;20035;-74
2023/03/09 01:32:37;;;;;;;88.35;43.17;;;3.30;93.60;;;;;;5025313;28;20037;-74
2023/03/09 01:35:04;;;;;;;81.55;40.60;;;3.40;93.70;;;;;;5028918;28;20032;-73
2023/03/09 01:37:30;;;;;;;85.25;43.38;;;3.50;93.70;;;;;;5024332;28;20034;-72
2023/03/09 01:39:56;;;;;;;83.03;42.50;;;3.50;93.70;;;;;;5025073;28;20029;-71
2023/03/09 01:42:21;;;;;;;91.68;44.33;;;3.60;93.70;;;;;;5017721;28;20377;-73
2023/03/09 01:45:18;;;;;;;95.75;46.67;;;3.60;93.70;;;;;;5023922;28;20128;-73
2023/03/09 01:47:45;;;;;;;85.57;43.88;;;3.60;93.70;;;;;;5020499;28;20053;-73
2023/03/09 01:50:16;;;;;;;89.60;44.03;;;3.60;93.70;;;;;;5026597;28;20026;-73
2023/03/09 01:52:44;;;;;;;88.45;44.15;;;3.60;93.60;;;;;;5032354;28;20504;-73
2023/03/09 01:55:16;;;;;;;80.45;43.35;;;3.60;93.60;;;;;;5023928;28;20036;-72
2023/03/09 01:58:04;;;;;;;84.45;42.03;;;3.60;93.60;;;;;;5002865;28;20049;-72
2023/03/09 02:00:30;;;;;;;88.38;42.88;;;3.60;93.70;;;;;;5018248;28;20026;-73
2023/03/09 02:03:15;;;;;;;77.82;40.40;;;3.70;93.60;;;;;;5021511;28;20033;-73
2023/03/09 02:05:49;;;;;;;83.97;43.93;;;3.70;93.60;;;;;;5024606;28;20116;-73
2023/03/09 02:08:15;;;;;;;83.47;43.53;;;3.70;93.60;;;;;;5017838;28;20030;-73
2023/03/09 02:11:03;;;;;;;76.72;41.38;;;3.70;93.60;;;;;;5021663;28;20022;-73
2023/03/09 02:13:33;;;;;;;74.20;39.65;;;3.70;93.50;;;;;;5022126;28;20025;-73
2023/03/09 02:15:58;;;;;;;71.72;39.25;;;3.70;93.50;;;;;;5023694;28;20033;-73
2023/03/09 02:18:25;;;;;;;72.28;39.25;;;3.70;93.50;;;;;;5024742;28;20418;-73
2023/03/09 02:21:20;;;;;;;65.75;37.08;;;3.70;93.40;;;;;;5021666;28;20043;-74
2023/03/09 02:24:05;;;;;;;;;;;3.60;93.40;;;;;;5022840;28;20101;-73
2023/03/09 02:26:45;;;;;;;69.20;36.25;;;3.60;93.30;;;;;;5022466;28;19917;-73
2023/03/09 02:29:13;;;;;;;71.53;36.85;;;3.60;93.30;;;;;;5026209;28;20048;-73
2023/03/09 02:31:39;;;;;;;66.85;36.22;;;3.50;93.30;;;;;;5030223;28;20270;-74
2023/03/09 02:34:05;;;;;;;75.93;40.53;;;3.50;93.30;;;;;;5027198;28;20033;-72
2023/03/09 02:36:30;;;;;;;72.88;39.33;;;3.50;93.30;;;;;;5029219;28;20556;-72
2023/03/09 02:39:06;;;;;;;69.30;37.55;;;3.50;93.40;;;;;;5028660;28;20475;-73
2023/03/09 02:41:32;;;;;;;78.60;38.25;;;3.40;93.40;;;;;;5028258;28;20087;-73
2023/03/09 02:43:58;;;;;;;76.90;38.80;;;3.40;93.60;;;;;;5026943;28;20076;-74
2023/03/09 02:46:24;;;;;;;76.10;38.40;;;3.30;93.70;;;;;;5025156;28;20048;-74
2023/03/09 02:48:50;;;;;;;77.25;41.20;;;3.40;93.80;;;;;;5026616;28;20036;-73
2023/03/09 02:51:16;;;;;;;86.00;39.22;;;3.40;93.90;;;;;;5022710;28;20065;-73
2023/03/09 02:53:41;;;;;;;80.05;39.95;;;3.40;93.80;;;;;;5027525;28;20491;-73
2023/03/09 02:56:07;;;;;;;81.47;38.47;;;3.40;93.90;;;;;;5023406;28;20449;-74
2023/03/09 02:58:33;;;;;;;80.05;38.67;;;3.40;93.90;;;;;;5024064;28;20057;-73
2023/03/09 03:00:59;;;;;;;77.88;37.25;;;3.40;94.00;;;;;;5020581;28;20057;-73
2023/03/09 03:03:25;;;;;;;82.18;40.50;;;3.40;94.00;;;;;;5006273;28;20087;-72
2023/03/09 03:05:51;;;;;;;87.13;38.72;;;3.50;94.10;;;;;;5029133;28;20045;-74
2023/03/09 03:08:17;;;;;;;80.07;37.38;;;3.50;94.00;;;;;;5023555;28;20445;-73
2023/03/09 03:10:42;;;;;;;73.03;35.90;;;3.50;94.10;;;;;;5023055;28;20409;-73
2023/03/09 03:13:08;;;;;;;78.75;38.58;;;3.50;94.10;;;;;;5021248;28;20425;-74
2023/03/09 03:15:34;;;;;;;73.93;35.75;;;3.50;94.00;;;;;;5017639;28;20029;-74
2023/03/09 03:18:00;;;;;;;76.53;36.20;;;3.50;93.90;;;;;;5021673;28;20673;-73
2023/03/09 03:20:26;;;;;;;74.85;35.85;;;3.50;94.00;;;;;;5022832;28;20033;-74
2023/03/09 03:22:51;;;;;;;69.80;33.50;;;3.50;94.00;;;;;;5021791;28;20076;-73
2023/03/09 03:25:18;;;;;;;69.18;33.40;;;3.40;94.00;;;;;;5026647;28;20045;-73
2023/03/09 03:27:44;;;;;;;68.53;32.88;;;3.40;94.00;;;;;;5020995;28;20455;-73
2023/03/09 03:30:11;;;;;;;70.90;32.55;;;3.50;94.00;;;;;;5029650;28;20029;-74
2023/03/09 03:32:37;;;;;;;59.63;31.30;;;3.40;94.00;;;;;;5025467;28;20142;-73
2023/03/09 03:35:03;;;;;;;68.80;32.03;;;3.40;94.00;;;;;;5028896;28;20576;-74
2023/03/09 03:37:29;;;;;;;66.28;31.40;;;3.40;94.00;;;;;;5030293;28;20551;-73
2023/03/09 03:39:55;;;;;;;66.00;31.77;;;3.40;94.00;;;;;;5011254;28;20670;-72
2023/03/09 03:42:21;;;;;;;64.60;31.55;;;3.40;94.10;;;;;;5029256;28;20037;-73
2023/03/09 03:44:46;;;;;;;63.55;30.60;;;3.30;94.10;;;;;;5025264;28;20040;-73
2023/03/09 03:47:12;;;;;;;60.17;29.08;;;3.30;94.10;;;;;;5024132;28;20571;-73
2023/03/09 03:49:37;;;;;;;56.67;27.05;;;3.30;94.10;;;;;;5030286;28;20026;-73
2023/03/09 03:52:03;;;;;;;51.25;27.00;;;3.20;94.20;;;;;;5029001;28;20040;-72
2023/03/09 03:54:29;;;;;;;53.53;26.20;;;3.20;94.10;;;;;;5032038;28;20060;-72
2023/03/09 03:56:55;;;;;;;56.42;26.20;;;3.10;94.20;;;;;;5028603;28;20076;-72
2023/03/09 03:59:21;;;;;;;55.10;27.10;;;3.20;94.30;;;;;;5031007;28;20057;-72
2023/03/09 04:01:46;;;;;;;55.85;27.23;;;3.10;94.30;;;;;;5012662;28;20113;-72
2023/03/09 04:04:12;;;;;;;55.42;27.55;;;3.30;94.40;;;;;;5029415;28;20030;-72
2023/03/09 04:06:38;;;;;;;52.58;27.00;;;3.30;94.30;;;;;;5032276;28;20144;-73
2023/03/09 04:09:04;;;;;;;54.55;26.10;;;3.20;94.40;;;;;;5030791;28;20071;-72
2023/03/09 04:11:30;;;;;;;56.88;28.67;;;3.30;94.40;;;;;;5031440;28;20127;-73
2023/03/09 04:13:56;;;;;;;49.40;24.52;;;3.40;94.30;;;;;;5029800;28;20052;-71
2023/03/09 04:16:22;;;;;;;58.35;28.00;;;3.30;94.20;;;;;;5027386;28;20632;-72
2023/03/09 04:18:48;;;;;;;57.08;28.58;;;3.30;94.30;;;;;;5031610;28;20049;-73
2023/03/09 04:21:13;;;;;;;54.95;27.83;;;3.20;94.30;;;;;;5029522;28;20116;-73
2023/03/09 04:23:39;;;;;;;55.03;27.83;;;3.20;94.30;;;;;;5025412;28;20378;-73
2023/03/09 04:26:05;;;;;;;57.90;26.52;;;3.20;94.40;;;;;;5025413;28;20033;-73
2023/03/09 04:28:31;;;;;;;53.83;27.17;;;3.30;94.30;;;;;;5022759;28;20460;-73
2023/03/09 04:30:57;;;;;;;53.15;26.17;;;3.30;94.40;;;;;;5023505;28;20397;-73
2023/03/09 04:33:23;;;;;;;57.17;27.33;;;3.40;94.40;;;;;;5024334;28;20018;-73
2023/03/09 04:35:49;;;;;;;53.05;26.48;;;3.40;94.30;;;;;;5023633;28;20172;-73
2023/03/09 04:38:15;;;;;;;50.53;26.13;;;3.40;94.30;;;;;;5026088;28;20040;-73
2023/03/09 04:40:41;;;;;;;53.88;26.25;;;3.40;94.30;;;;;;5018455;28;20064;-74
2023/03/09 04:43:07;;;;;;;49.28;26.02;;;3.40;94.40;;;;;;5022373;28;20084;-73
2023/03/09 04:45:32;;;;;;;49.05;24.77;;;3.50;94.40;;;;;;5025934;28;20054;-73
2023/03/09 04:47:59;;;;;;;47.40;24.88;;;3.40;94.30;;;;;;5030235;28;20438;-73
2023/03/09 04:50:25;;;;;;;45.25;24.70;;;3.50;94.30;;;;;;5029735;28;20082;-73
2023/03/09 04:52:51;;;;;;;44.72;25.63;;;3.40;94.20;;;;;;5031477;28;20044;-73
2023/03/09 04:55:17;;;;;;;45.13;24.83;;;3.30;94.20;;;;;;5029251;28;20480;-73
2023/03/09 04:57:43;;;;;;;45.85;23.70;;;3.30;94.20;;;;;;5025953;28;20043;-73
2023/03/09 05:00:10;;;;;;;44.83;24.20;;;3.30;94.20;;;;;;5029792;28;20425;-72
2023/03/09 05:02:38;;;;;;;46.70;24.45;;;3.30;94.30;;;;;;5027050;28;20025;-73
2023/03/09 05:05:05;;;;;;;49.63;25.40;;;3.40;94.30;;;;;;5031319;28;20180;-73
2023/03/09 05:07:30;;;;;;;48.25;25.65;;;3.40;94.30;;;;;;5030983;28;20570;-73
2023/03/09 05:09:56;;;;;;;49.78;25.13;;;3.40;94.20;;;;;;5027451;28;20025;-74
2023/03/09 05:12:21;;;;;;;46.30;24.98;;;3.30;94.20;;;;;;5027149;28;20029;-74
2023/03/09 05:14:47;;;;;;;45.58;25.02;;;3.30;94.30;;;;;;5011805;28;20465;-73
2023/03/09 05:17:13;;;;;;;50.42;26.80;;;3.30;94.30;;;;;;5027516;28;20077;-73
2023/03/09 05:19:38;;;;;;;55.58;28.17;;;3.40;94.30;;;;;;5030627;28;20037;-74
2023/03/09 05:22:05;;;;;;;55.63;29.60;;;3.40;94.30;;;;;;5029148;28;20033;-74
2023/03/09 05:24:31;;;;;;;58.17;29.73;;;3.40;94.30;;;;;;5007125;28;20029;-73
2023/03/09 05:26:57;;;;;;;61.30;30.98;;;3.40;94.30;;;;;;5027035;28;20029;-72
2023/03/09 05:29:23;;;;;;;63.97;32.47;;;3.40;94.30;;;;;;5027806;28;20029;-73
2023/03/09 05:31:48;;;;;;;64.82;31.40;;;3.50;94.20;;;;;;5025890;28;20033;-73
2023/03/09 05:34:14;;;;;;;65.78;33.97;;;3.40;94.20;;;;;;5030765;28;20033;-72
2023/03/09 05:36:40;;;;;;;63.17;32.35;;;3.50;94.20;;;;;;5028932;28;20044;-73
2023/03/09 05:39:06;;;;;;;57.97;30.35;;;3.40;94.10;;;;;;5014173;28;20125;-73
2023/03/09 05:41:31;;;;;;;58.95;30.17;;;3.40;94.10;;;;;;5012894;28;20037;-73
2023/03/09 05:44:00;;;;;;;59.75;32.53;;;3.40;94.10;;;;;;5014872;28;20029;-74
2023/03/09 05:46:26;;;;;;;61.60;32.67;;;3.40;94.10;;;;;;5010189;28;20057;-75
2023/03/09 05:48:52;;;;;;;59.67;33.25;;;3.40;94.10;;;;;;5009362;28;20624;-73
2023/03/09 05:51:17;;;;;;;64.55;33.90;;;3.40;94.00;;;;;;5012378;28;20034;-73
2023/03/09 05:53:43;;;;;;;59.40;31.63;;;3.40;94.00;;;;;;5013478;28;20092;-72
2023/03/09 05:56:09;;;;;;;62.90;34.22;;;3.40;93.90;;;;;;5012764;28;20057;-74
2023/03/09 05:58:35;;;;;;;63.88;33.95;;;3.40;94.00;;;;;;5013831;28;20025;-72
2023/03/09 06:01:01;;;;;;;61.88;32.60;;;3.30;93.90;;;;;;5015670;28;20038;-74
2023/03/09 06:03:27;;;;;;;56.25;31.92;;;3.30;93.90;;;;;;5013966;28;20609;-72
2023/03/09 06:06:04;;;;;;;60.88;31.75;;;3.30;94.00;;;;;;5011689;28;20386;-73
2023/03/09 06:08:30;;;;;;;64.47;33.83;;;3.40;94.00;;;;;;5015581;28;20050;-73
2023/03/09 06:11:00;;;;;;;60.15;32.67;;;3.40;94.00;;;;;;5014904;28;20042;-72
2023/03/09 06:13:26;;;;;;;65.78;33.65;;;3.40;93.90;;;;;;5016931;28;20487;-72
2023/03/09 06:15:52;;;;;;;64.72;35.53;;;3.40;93.90;;;;;;5002188;28;20068;-73
2023/03/09 06:18:18;;;;;;;64.60;34.53;;;3.40;93.80;;;;;;5012491;28;20847;-72
2023/03/09 06:20:44;;;;;;;70.18;36.05;;;3.30;93.80;;;;;;4995496;28;20107;-72
2023/03/09 06:23:10;;;;;;;71.93;36.42;;;3.30;93.90;;;;;;5026043;28;20405;-73
2023/03/09 06:25:37;;;;;;;71.10;36.83;;;3.30;93.90;;;;;;5025371;28;20029;-72
2023/03/09 06:28:03;;;;;;;72.07;37.53;;;3.30;93.90;;;;;;5026656;28;20057;-72
2023/03/09 06:30:29;;;;;;;77.40;38.22;;;3.40;93.90;;;;;;5021336;28;20463;-74
2023/03/09 06:32:56;;;;;;;76.13;39.65;;;3.30;93.90;;;;;;5023524;28;20423;-73
2023/03/09 06:35:22;;;;;;;80.47;40.78;;;3.40;93.90;;;;;;5025946;28;20116;-73
2023/03/09 06:37:48;;;;;;;79.45;40.40;;;3.30;94.00;;;;;;5023636;28;20038;-72
2023/03/09 06:40:13;;;;;;;80.85;39.70;;;3.40;93.90;;;;;;5024418;28;20030;-73
2023/03/09 06:42:40;;;;;;;74.38;40.30;;;3.40;94.00;;;;;;5024102;28;20057;-72
2023/03/09 06:45:06;;;;;;;84.05;42.17;;;3.30;94.00;;;;;;5023330;28;20034;-73
2023/03/09 06:47:32;;;;;;;88.00;42.92;;;3.30;93.90;;;;;;5031011;28;20036;-73
2023/03/09 06:49:58;;;;;;;85.65;42.40;;;3.30;93.90;;;;;;5038262;28;20685;-76
2023/03/09 06:52:25;;;;;;;89.95;41.97;;;3.30;93.90;;;;;;5030806;28;20037;-76
2023/03/09 06:54:51;;;;;;;87.30;41.88;;;3.30;94.00;;;;;;5031779;28;20080;-76
2023/03/09 06:57:17;;;;;;;87.57;42.83;;;3.40;94.10;;;;;;5021852;28;20065;-76
2023/03/09 06:59:43;;;;;;;82.88;39.85;;;3.40;94.10;;;;;;5023095;28;20028;-76
2023/03/09 07:02:11;;;;;;;85.35;42.40;;;3.50;94.20;;;;;;5021193;28;20128;-76
2023/03/09 07:04:37;;;;;;;89.43;44.25;;;3.60;94.20;;;;;;4999264;28;20595;-79
2023/03/09 07:07:03;;;;;;;85.82;43.47;;;3.60;94.10;;;;;;5023644;28;20037;-77
2023/03/09 07:09:31;;;;;;;85.93;42.08;;;3.60;94.00;;;;;;5028494;28;20025;-77
2023/03/09 07:11:57;;;;;;;89.57;43.35;;;3.60;93.80;;;;;;5029018;28;20245;-77
2023/03/09 07:14:23;;;;;;;82.35;40.33;;;3.50;93.80;;;;;;5035583;28;20028;-76
2023/03/09 07:16:56;;;;;;;79.60;39.83;;;3.60;93.90;;;;;;5039934;28;20107;-77
2023/03/09 07:19:22;;;;;;;78.95;40.03;;;3.60;93.80;;;;;;5034864;28;20159;-77
2023/03/09 07:21:49;;;;;;;85.78;44.33;;;3.60;93.80;;;;;;5037586;28;20886;-77
2023/03/09 07:24:15;;;;;;;76.18;41.08;;;3.70;93.80;;;;;;5032562;28;20057;-76
2023/03/09 07:26:40;;;;;;;82.50;40.67;;;3.70;93.80;;;;;;5031402;28;20508;-76
2023/03/09 07:29:06;;;;;;;73.63;38.17;;;3.80;93.90;;;;;;5010422;28;20576;-77
2023/03/09 07:31:32;;;;;;;77.65;40.15;;;3.90;93.90;;;;;;5027436;28;20065;-78
2023/03/09 07:33:59;;;;;;;73.82;39.13;;;4.00;93.90;;;;;;5028047;28;20528;-79
2023/03/09 07:36:25;;;;;;;76.05;37.05;;;4.10;93.90;;;;;;5028423;28;20816;-81
2023/03/09 07:38:51;;;;;;;72.40;35.90;;;4.10;93.90;;;;;;5030005;28;20029;-81
2023/03/09 07:41:18;;;;;;;76.85;37.65;;;4.20;93.80;;;;;;5033102;28;20039;-77
2023/03/09 07:43:44;;;;;;;66.47;34.47;;;4.30;93.70;;;;;;5023197;28;20049;-79
2023/03/09 07:46:12;;;;;;;66.93;34.22;;;4.30;93.60;;;;;;5022733;28;20077;-78
2023/03/09 07:48:38;;;;;;;65.65;33.95;;;4.40;93.60;;;;;;5021875;28;20406;-79
2023/03/09 07:51:04;;;;;;;65.65;32.88;;;4.40;93.50;;;;;;5025024;28;20088;-82
2023/03/09 07:53:31;;;;;;;72.28;37.78;;;4.40;93.50;;;;;;5028543;28;20032;-80
2023/03/09 07:56:00;;;;;;;66.90;35.17;;;4.40;93.30;;;;;;5009236;28;20076;-79
2023/03/09 07:58:26;;;;;;;64.28;34.33;;;4.50;93.30;;;;;;5024500;28;20034;-80
2023/03/09 08:00:52;;;;;;;68.82;35.97;;;4.50;93.40;;;;;;5023696;28;20029;-83
2023/03/09 08:03:18;;;;;;;74.50;37.90;;;4.60;93.40;;;;;;5027706;28;20108;-80
2023/03/09 08:05:44;;;;;;;67.38;36.40;;;4.60;93.20;;;;;;4995665;28;20029;-78
2023/03/09 08:08:11;;;;;;;64.03;36.72;;;4.70;93.10;;;;;;5010084;28;20037;-79
2023/03/09 08:10:37;;;;;;;66.95;37.47;;;4.80;93.10;;;;;;5026045;28;20083;-82
2023/03/09 08:13:03;;;;;;;71.32;36.60;;;4.80;92.80;;;;;;5015314;28;20121;-83
2023/03/09 08:15:29;;;;;;;58.97;34.05;;;4.80;92.60;;;;;;5032307;28;20022;-82
2023/03/09 08:17:55;;;;;;;59.72;33.70;;;4.70;92.30;;;;;;5024131;28;20106;-82
2023/03/09 08:20:23;;;;;;;70.70;36.80;;;4.80;92.50;;;;;;5023426;28;20136;-82
2023/03/09 08:22:49;;;;;;;63.63;35.28;;;4.80;92.40;;;;;;5027809;28;20229;-81
2023/03/09 08:25:15;;;;;;;65.60;33.92;;;4.80;92.30;;;;;;5034925;28;20025;-82
2023/03/09 08:27:43;;;;;;;60.35;33.20;;;4.90;92.40;;;;;;5029315;28;20059;-79
2023/03/09 08:30:10;;;;;;;63.45;34.83;;;4.90;92.40;;;;;;5029087;28;20025;-80
2023/03/09 08:32:36;;;;;;;61.42;31.73;;;5.10;92.40;;;;;;5028719;28;20037;-81
2023/03/09 08:35:02;;;;;;;62.67;33.60;;;5.10;92.10;;;;;;5029012;28;20060;-83
2023/03/09 08:37:28;;;;;;;59.03;33.30;;;5.10;91.80;;;;;;5000365;28;20061;-82
2023/03/09 08:39:54;;;;;;;55.17;31.58;;;5.10;91.50;;;;;;5029827;28;20018;-83
2023/03/09 08:42:19;;;;;;;62.65;33.25;;;5.10;91.50;;;;;;5027910;28;20483;-81
2023/03/09 08:44:45;;;;;;;57.25;31.70;;;5.20;91.60;;;;;;5028251;28;20037;-83
2023/03/09 08:47:11;;;;;;;51.20;30.23;;;5.10;91.40;;;;;;5007641;28;20056;-82
2023/03/09 08:49:40;;;;;;;61.55;33.08;;;5.20;91.30;;;;;;5029347;28;20033;-80
2023/03/09 08:52:06;;;;;;;58.67;32.40;;;5.20;91.30;;;;;;5028720;28;20029;-83
2023/03/09 08:54:32;;;;;;;58.55;32.80;;;5.30;91.30;;;;;;5028478;28;20029;-83
2023/03/09 08:56:57;;;;;;;58.25;33.08;;;5.30;91.00;;;;;;5026858;28;20037;-83
2023/03/09 08:59:23;;;;;;;55.65;30.85;;;5.30;91.00;;;;;;5027853;28;20552;-82
2023/03/09 09:01:49;;;;;;;54.95;32.28;;;5.40;91.10;;;;;;5028367;28;20076;-82
2023/03/09 09:04:14;;;;;;;52.95;29.85;;;5.40;90.90;;;;;;5029155;28;20027;-81
2023/03/09 09:06:40;;;;;;;56.95;33.80;;;5.50;90.70;;;;;;5012197;28;20034;-78
2023/03/09 09:09:06;;;;;;;48.13;28.25;;;5.50;90.70;;;;;;5029080;28;20028;-82
2023/03/09 09:11:32;;;;;;;56.60;30.85;;;5.60;90.80;;;;;;5029647;28;20039;-81
2023/03/09 09:13:59;;;;;;;53.40;30.13;;;5.60;90.80;;;;;;5029712;28;20095;-83
2023/03/09 09:16:27;;;;;;;50.50;29.30;;;5.70;90.70;;;;;;5031225;28;20033;-81
2023/03/09 09:18:53;;;;;;;53.90;29.10;;;5.60;90.60;;;;;;5013298;28;20397;-82
2023/03/09 09:21:19;;;;;;;51.45;28.83;;;5.70;90.60;;;;;;5028465;28;20033;-81
2023/03/09 09:23:45;;;;;;;53.80;28.95;;;5.70;90.50;;;;;;5010727;28;20018;-80
2023/03/09 09:26:12;;;;;;;49.10;30.38;;;5.80;90.40;;;;;;5027208;28;20033;-79
2023/03/09 09:28:39;;;;;;;47.47;26.77;;;5.70;90.30;;;;;;5026736;28;20031;-83
2023/03/09 09:31:05;;;;;;;48.20;26.85;;;5.70;90.20;;;;;;5026652;28;20071;-83
2023/03/09 09:33:33;;;;;;;48.25;28.98;;;5.80;90.10;;;;;;5025676;28;20026;-79
2023/03/09 09:36:10;;;;;;;47.60;26.67;;;5.80;90.30;;;;;;5025386;28;20479;-83
2023/03/09 09:38:37;;;;;;;46.67;26.98;;;5.90;90.40;;;;;;5026761;28;20141;-79
2023/03/09 09:41:11;;;;;;;48.65;28.00;;;5.90;90.10;;;;;;5009225;28;20125;-79
2023/03/09 09:43:39;;;;;;;46.95;26.38;;;5.90;90.10;;;;;;5007428;28;20037;-79
2023/03/09 09:46:13;;;;;;;51.70;29.17;;;6.00;90.50;;;;;;5025418;28;20536;-79
2023/03/09 09:48:41;;;;;;;48.90;27.37;;;6.10;90.30;;;;;;5035772;28;20539;-79
2023/03/09 09:51:30;;;;;;;53.20;29.13;;;6.20;90.50;;;;;;5028412;28;20033;-79
2023/03/09 09:54:16;;;;;;;51.08;28.52;;;6.20;89.60;;;;;;5032601;28;20024;-79
2023/03/09 09:56:50;;;;;;;52.72;29.88;;;6.40;90.00;;;;;;5026482;28;20041;-78
2023/03/09 09:59:29;;;;;;;51.75;30.52;;;6.40;90.10;;;;;;5012557;28;20469;-80
2023/03/09 10:02:08;;;;;;;52.38;29.88;;;6.50;90.10;;;;;;5034148;28;20387;-79
2023/03/09 10:04:44;;;;;;;55.25;31.77;;;6.60;90.20;;;;;;5030229;28;20042;-80
2023/03/09 10:07:22;;;;;;;55.95;32.05;;;6.70;89.90;;;;;;5037842;28;20062;-78
2023/03/09 10:10:02;;;;;;;56.20;32.60;;;6.90;89.50;;;;;;5031833;28;20108;-79
2023/03/09 10:12:28;;;;;;;56.03;32.20;;;6.90;89.30;;;;;;5021413;28;20422;-79
2023/03/09 10:15:04;;;;;;;54.28;32.10;;;7.00;89.60;;;;;;5017728;28;20088;-80
2023/03/09 10:17:38;;;;;;;56.40;31.05;;;7.00;89.10;;;;;;5030623;28;20139;-80
2023/03/09 10:20:15;;;;;;;55.85;29.85;;;7.00;89.10;;;;;;5024469;28;20025;-80
2023/03/09 10:22:44;;;;;;;50.83;29.58;;;7.10;89.80;;;;;;5036235;28;20113;-77
2023/03/09 10:25:12;;;;;;;55.92;32.50;;;7.10;89.70;;;;;;5018554;28;20058;-79
2023/03/09 10:27:55;;;;;;;50.92;30.63;;;7.10;89.50;;;;;;5027895;28;20069;-80
2023/03/09 10:30:30;;;;;;;53.33;32.00;;;7.00;89.70;;;;;;5023970;28;20014;-80
2023/03/09 10:33:05;;;;;;;51.70;29.65;;;7.10;89.70;;;;;;5025724;28;20041;-80
2023/03/09 10:35:43;;;;;;;55.97;31.58;;;7.10;90.00;;;;;;5024429;28;20346;-79
2023/03/09 10:38:18;;;;;;;56.30;32.00;;;7.10;90.00;;;;;;5031707;28;20037;-79
2023/03/09 10:40:46;;;;;;;53.70;30.13;;;7.10;90.10;;;;;;5024943;28;20501;-80
2023/03/09 10:43:27;;;;;;;50.28;30.20;;;7.10;90.30;;;;;;5021143;28;20025;-79
2023/03/09 10:45:53;;;;;;;56.08;33.00;;;7.20;90.50;;;;;;5023873;28;20573;-79
2023/03/09 10:48:21;;;;;;;56.40;32.20;;;7.20;90.30;;;;;;5022087;28;20091;-78
2023/03/09 10:51:02;;;;;;;53.22;32.97;;;7.20;90.50;;;;;;5026674;28;20498;-76
2023/03/09 10:53:41;;;;;;;56.33;31.35;;;7.20;90.70;;;;;;5023467;28;20091;-78
2023/03/09 10:56:30;;;;;;;53.15;30.40;;;7.30;90.80;;;;;;5019762;28;20036;-80
2023/03/09 10:59:08;;;;;;;56.63;34.30;;;7.40;91.00;;;;;;5022654;28;20632;-78
2023/03/09 11:01:39;;;;;;;60.17;33.00;;;7.50;91.00;;;;;;5023871;28;20044;-81
2023/03/09 11:04:24;;;;;;;57.90;32.22;;;7.60;91.30;;;;;;5024050;28;20096;-80
2023/03/09 11:06:53;;;;;;;55.67;33.83;;;7.70;91.20;;;;;;5017800;28;20042;-79
2023/03/09 11:09:35;;;;;;;54.55;31.75;;;7.80;91.20;;;;;;5025201;28;20248;-81
2023/03/09 11:12:27;;;;;;;55.03;33.22;;;7.80;91.40;;;;;;5023691;28;20123;-80
2023/03/09 11:15:22;;;;;;;58.53;33.65;;;8.00;91.50;;;;;;5024965;28;20091;-78
2023/03/09 11:17:48;;;;;;;55.50;33.15;;;8.10;91.50;;;;;;5023404;28;20132;-80
2023/03/09 11:20:18;;;;;;;58.00;33.47;;;8.10;91.70;;;;;;5025191;28;20132;-80
2023/03/09 11:23:17;;;;;;;60.40;34.28;;;8.30;91.80;;;;;;5010663;28;20063;-80
2023/03/09 11:26:04;;;;;;;56.17;33.42;;;8.60;91.90;;;;;;5018582;28;20021;-79
2023/03/09 11:29:10;;;;;;;50.60;30.63;;;9.00;92.20;;;;;;5018154;28;20038;-78
2023/03/09 11:31:41;;;;;;;49.50;30.52;;;9.50;92.10;;;;;;5000957;28;20057;-79
2023/03/09 11:34:20;;;;;;;46.80;29.48;;;9.90;91.30;;;;;;5011471;28;20549;-79
2023/03/09 11:37:14;;;;;;;50.05;30.48;;;10.10;90.90;;;;;;5008723;28;20042;-78
2023/03/09 11:40:01;;;;;;;45.17;28.80;;;10.30;90.60;;;;;;5008265;28;20077;-79
2023/03/09 11:42:49;;;;;;;43.42;26.85;;;10.50;90.50;;;;;;5011227;28;20076;-78
2023/03/09 11:45:23;;;;;;;43.67;25.63;;;10.70;89.90;;;;;;5010979;28;21148;-79
2023/03/09 11:47:49;;;;;;;;;;;11.00;90.10;;;;;;5013004;28;20034;-80
2023/03/09 11:50:27;;;;;;;34.80;23.77;;;11.20;90.50;;;;;;5013110;28;19948;-78
2023/03/09 11:53:00;;;;;;;33.00;22.65;;;11.50;90.10;;;;;;5014009;28;20121;-79
2023/03/09 11:55:40;;;;;;;32.70;22.23;;;11.70;89.60;;;;;;5013820;28;20018;-79
2023/03/09 11:58:14;;;;;;;33.78;22.00;;;11.90;90.00;;;;;;5010245;28;20883;-79
2023/03/09 12:00:45;;;;;;;34.78;21.20;;;11.90;89.50;;;;;;5014592;28;20508;-78
2023/03/09 12:03:16;;;;;;;35.35;21.05;;;12.10;89.90;;;;;;5018416;28;20025;-78
2023/03/09 12:05:50;;;;;;;35.85;20.75;;;12.50;89.90;;;;;;5013197;28;20029;-80
2023/03/09 12:08:22;;;;;;;30.20;18.63;;;12.60;89.20;;;;;;5014848;28;20034;-80
2023/03/09 12:10:56;;;;;;;28.92;16.85;;;12.60;88.60;;;;;;5020913;28;20032;-76
2023/03/09 12:13:28;;;;;;;28.02;15.65;;;12.50;89.00;;;;;;5007473;28;20026;-78
2023/03/09 12:16:18;;;;;;;31.17;15.18;;;12.40;89.20;;;;;;5025440;28;20072;-79
2023/03/09 12:19:04;;;;;;;25.95;12.15;;;12.40;89.40;;;;;;5031029;28;20110;-78
2023/03/09 12:21:38;;;;;;;31.00;12.55;;;12.40;89.80;;;;;;5023229;28;20572;-78
2023/03/09 12:24:22;;;;;;;35.85;11.70;;;12.50;90.40;;;;;;5009452;28;20098;-79
2023/03/09 12:27:16;;;;;;;32.95;9.35;;;12.70;90.20;;;;;;5033582;28;20044;-78
2023/03/09 12:29:47;;;;;;;28.38;9.40;;;12.80;89.30;;;;;;5027281;28;20059;-76
2023/03/09 12:32:25;;;;;;;27.40;8.27;;;12.80;88.90;;;;;;5025213;28;20049;-76
2023/03/09 12:35:00;;;;;;;25.58;8.25;;;12.80;88.30;;;;;;5027993;28;20029;-78
2023/03/09 12:37:32;;;;;;;29.05;15.05;;;12.80;87.90;;;;;;5021103;28;20076;-77
2023/03/09 12:39:58;;;;;;;26.85;7.88;;;12.70;88.00;;;;;;5022977;28;20033;-77
2023/03/09 12:42:26;;;;;;;26.52;6.80;;;12.80;87.80;;;;;;5021049;28;20037;-79
2023/03/09 12:44:52;;;;;;;23.10;5.05;;;12.60;86.80;;;;;;5026312;28;20021;-77
2023/03/09 12:47:38;;;;;;;20.05;5.75;;;12.80;85.80;;;;;;5027306;28;20120;-78